createdAt,value
2019-02-25T00:00:39.185Z,68.17
2019-02-25T00:03:47.529Z,68.47
2019-02-25T00:06:54.363Z,68.65
2019-02-25T00:10:01.176Z,68.90
2019-02-25T00:13:08.857Z,69.28
2019-02-25T00:16:17.082Z,69.28
2019-02-25T00:19:23.887Z,69.87
2019-02-25T00:22:30.682Z,70.15
2019-02-25T00:25:37.570Z,70.52
2019-02-25T00:28:44.444Z,70.30
2019-02-25T00:31:51.261Z,70.56
2019-02-25T00:34:58.043Z,70.62
2019-02-25T00:38:04.933Z,70.80
2019-02-25T00:41:11.775Z,71.15
2019-02-25T00:44:21.488Z,71.60
2019-02-25T00:47:28.278Z,71.36
2019-02-25T00:50:35.186Z,71.86
2019-02-25T00:53:42.042Z,71.98
2019-02-25T00:56:49.194Z,72.07
2019-02-25T00:59:55.963Z,72.57
2019-02-25T01:03:02.863Z,72.42
2019-02-25T01:06:09.637Z,72.94
2019-02-25T01:09:19.270Z,73.00
2019-02-25T01:12:26.128Z,73.66
2019-02-25T01:15:33.030Z,73.97
2019-02-25T01:18:39.893Z,73.52
2019-02-25T01:21:46.708Z,72.75
2019-02-25T01:24:53.759Z,74.06
2019-02-25T01:28:00.581Z,74.19
2019-02-25T01:31:08.517Z,73.75
2019-02-25T01:34:15.457Z,73.88
2019-02-25T01:37:22.315Z,74.19
2019-02-25T01:40:29.200Z,74.42
2019-02-25T01:43:35.969Z,74.61
2019-02-25T01:46:42.782Z,75.21
2019-02-25T01:49:49.666Z,74.72
2019-02-25T01:52:56.556Z,75.30
2019-02-25T01:56:03.356Z,75.23
2019-02-25T01:59:10.556Z,76.46
2019-02-25T02:02:18.187Z,76.49
2019-02-25T02:05:25.079Z,76.81
2019-02-25T02:08:31.917Z,77.20
2019-02-25T02:11:38.819Z,77.14
2019-02-25T02:14:45.757Z,77.17
2019-02-25T02:17:52.799Z,77.12
2019-02-25T02:20:59.599Z,76.61
2019-02-25T02:24:06.600Z,78.21
2019-02-25T02:27:14.544Z,77.91
2019-02-25T02:30:23.075Z,78.78
2019-02-25T02:33:29.874Z,79.10
2019-02-25T02:36:36.779Z,78.66
2019-02-25T02:39:43.660Z,78.13
2019-02-25T02:42:54.042Z,78.85
2019-02-25T02:46:14.993Z,78.56
2019-02-25T02:49:22.279Z,78.93
2019-02-25T02:52:29.186Z,78.14
2019-02-25T02:55:36.115Z,78.45
2019-02-25T02:58:43.477Z,77.26
2019-02-25T03:01:51.649Z,78.24
2019-02-25T03:04:58.436Z,78.14
2019-02-25T03:08:05.575Z,79.00
2019-02-25T03:11:12.511Z,79.72
2019-02-25T03:14:21.119Z,79.96
2019-02-25T03:17:28.007Z,79.82
2019-02-25T03:20:34.847Z,79.85
2019-02-25T03:23:42.089Z,80.82
2019-02-25T03:26:48.999Z,80.40
2019-02-25T03:29:55.874Z,81.04
2019-02-25T03:33:02.724Z,80.95
2019-02-25T03:36:09.732Z,81.18
2019-02-25T03:39:17.159Z,81.28
2019-02-25T03:42:23.971Z,80.24
2019-02-25T03:45:30.861Z,81.12
2019-02-25T03:48:37.689Z,81.28
2019-02-25T03:51:44.596Z,81.13
2019-02-25T03:54:54.338Z,81.87
2019-02-25T03:58:01.182Z,81.66
2019-02-25T04:01:08.062Z,81.38
2019-02-25T04:04:16.199Z,81.50
2019-02-25T04:07:23.121Z,81.30
2019-02-25T04:10:29.958Z,79.97
2019-02-25T04:13:36.888Z,81.03
2019-02-25T04:16:45.777Z,81.57
2019-02-25T04:19:52.560Z,79.96
2019-02-25T04:22:59.452Z,80.52
2019-02-25T04:26:06.280Z,81.82
2019-02-25T04:29:13.117Z,82.39
2019-02-25T04:32:22.921Z,81.83
2019-02-25T04:35:29.731Z,83.43
2019-02-25T04:38:36.521Z,81.19
2019-02-25T04:41:46.505Z,82.91
2019-02-25T04:44:53.348Z,82.89
2019-02-25T04:48:00.135Z,83.83
2019-02-25T04:51:09.642Z,83.54
2019-02-25T04:54:20.649Z,83.05
2019-02-25T04:57:27.607Z,83.00
2019-02-25T05:00:34.541Z,82.01
2019-02-25T05:03:41.409Z,82.38
2019-02-25T05:06:48.567Z,81.88
2019-02-25T05:09:55.330Z,81.91
2019-02-25T05:13:04.333Z,83.31
2019-02-25T05:16:11.329Z,82.79
2019-02-25T05:19:20.053Z,83.42
2019-02-25T05:22:26.857Z,82.44
2019-02-25T05:25:33.753Z,83.89
2019-02-25T05:28:40.624Z,83.37
2019-02-25T05:31:47.517Z,84.83
2019-02-25T05:34:54.395Z,85.93
2019-02-25T05:38:01.285Z,85.90
2019-02-25T05:41:08.469Z,86.64
2019-02-25T05:44:16.991Z,86.79
2019-02-25T05:47:23.840Z,86.15
2019-02-25T05:50:31.026Z,86.05
2019-02-25T05:53:37.861Z,86.66
2019-02-25T05:56:44.664Z,85.59
2019-02-25T05:59:51.430Z,85.95
2019-02-25T06:02:58.339Z,86.73
2019-02-25T06:06:05.182Z,85.93
2019-02-25T06:09:12.371Z,86.91
2019-02-25T06:12:19.285Z,86.76
2019-02-25T06:15:26.135Z,86.25
2019-02-25T06:18:32.894Z,85.87
2019-02-25T06:21:39.714Z,85.86
2019-02-25T06:24:46.564Z,87.18
2019-02-25T06:27:53.461Z,86.20
2019-02-25T06:31:00.293Z,84.51
2019-02-25T06:34:07.164Z,84.31
2019-02-25T06:37:14.084Z,84.21
2019-02-25T06:40:22.460Z,83.27
2019-02-25T06:43:29.308Z,83.98
2019-02-25T06:46:36.175Z,84.09
2019-02-25T06:49:43.382Z,85.72
2019-02-25T06:52:51.158Z,86.21
2019-02-25T06:55:57.915Z,85.33
2019-02-25T06:59:04.904Z,86.04
2019-02-25T07:02:11.750Z,86.19
2019-02-25T07:05:27.971Z,85.85
2019-02-25T07:08:52.467Z,84.64
2019-02-25T07:12:16.988Z,84.48
2019-02-25T07:15:41.499Z,84.00
2019-02-25T07:19:06.402Z,82.83
2019-02-25T07:22:27.276Z,83.95
2019-02-25T07:25:53.080Z,83.94
2019-02-25T07:29:17.371Z,83.10
2019-02-25T07:32:48.664Z,83.86
2019-02-25T07:36:23.399Z,83.27
2019-02-25T07:39:51.944Z,83.80
2019-02-25T07:43:26.993Z,83.17
2019-02-25T07:46:40.178Z,82.88
2019-02-25T07:50:24.262Z,82.61
2019-02-25T07:53:38.300Z,82.77
2019-02-25T07:57:19.782Z,81.06
2019-02-25T08:00:37.337Z,80.06
2019-02-25T08:03:57.559Z,80.15
2019-02-25T08:07:29.358Z,79.24
2019-02-25T08:11:56.851Z,79.80
2019-02-25T08:15:35.271Z,79.46
2019-02-25T08:19:13.156Z,79.15
2019-02-25T08:26:37.134Z,77.22
2019-02-25T08:30:07.405Z,77.24
2019-02-25T08:33:45.922Z,77.65
2019-02-25T08:37:50.833Z,75.38
2019-02-25T08:41:29.465Z,75.24
2019-02-25T08:44:50.411Z,75.18
2019-02-25T08:48:14.930Z,74.39
2019-02-25T08:51:22.473Z,74.11
2019-02-25T08:54:29.359Z,73.28
2019-02-25T08:57:36.277Z,73.21
2019-02-25T09:00:43.141Z,72.41
2019-02-25T09:03:49.982Z,72.69
2019-02-25T09:06:56.855Z,69.60
2019-02-25T09:10:03.782Z,70.65
2019-02-25T09:13:11.639Z,68.84
2019-02-25T09:16:21.321Z,68.73
2019-02-25T09:19:28.202Z,65.06
2019-02-25T09:22:35.030Z,63.10
2019-02-25T09:25:42.027Z,61.02
2019-02-25T09:28:51.820Z,60.12
2019-02-25T09:34:51.709Z,59.60
2019-02-25T09:36:06.485Z,62.36
2019-02-25T09:39:16.687Z,60.93
2019-02-25T09:46:48.311Z,57.22
2019-02-25T09:50:05.249Z,57.32
2019-02-25T09:53:14.270Z,50.67
2019-02-25T09:56:23.909Z,50.07
2019-02-25T09:59:30.785Z,51.81
2019-02-25T10:02:37.732Z,51.99
2019-02-25T10:05:46.258Z,47.73
2019-02-25T10:08:53.475Z,49.40
2019-02-25T10:12:00.499Z,49.06
2019-02-25T10:15:08.984Z,45.10
2019-02-25T10:18:17.368Z,45.87
2019-02-25T10:21:24.300Z,44.14
2019-02-25T10:24:31.182Z,44.63
2019-02-25T10:27:38.075Z,38.79
2019-02-25T10:30:52.651Z,41.01
2019-02-25T10:33:53.426Z,41.37
2019-02-25T10:37:00.271Z,39.86
2019-02-25T10:40:08.941Z,39.88
2019-02-25T10:43:16.085Z,38.11
2019-02-25T10:46:25.484Z,38.37
2019-02-25T10:49:33.681Z,37.96
2019-02-25T10:52:41.207Z,36.89
2019-02-25T10:56:27.047Z,33.39
2019-02-25T10:59:34.557Z,34.55
2019-02-25T11:02:44.421Z,32.77
2019-02-25T11:05:53.867Z,32.37
2019-02-25T11:09:07.006Z,31.17
2019-02-25T11:12:15.975Z,31.08
2019-02-25T11:15:23.378Z,31.26
2019-02-25T11:18:30.604Z,31.77
2019-02-25T11:21:38.092Z,35.06
2019-02-25T11:24:47.409Z,33.34
2019-02-25T11:27:54.487Z,33.40
2019-02-25T11:31:01.298Z,34.90
2019-02-25T11:34:08.177Z,34.17
2019-02-25T11:37:16.732Z,35.27
2019-02-25T11:40:25.896Z,34.17
2019-02-25T11:43:32.566Z,35.12
2019-02-25T11:46:39.442Z,34.34
2019-02-25T11:49:46.419Z,35.46
2019-02-25T11:52:54.349Z,36.16
2019-02-25T11:56:01.236Z,36.07
2019-02-25T11:59:08.109Z,35.43
2019-02-25T12:02:15.317Z,35.73
2019-02-25T12:05:22.192Z,35.46
2019-02-25T12:08:30.250Z,36.58
2019-02-25T12:11:37.126Z,37.60
2019-02-25T12:14:44.131Z,37.61
2019-02-25T12:17:51.075Z,38.88
2019-02-25T12:20:58.190Z,37.24
2019-02-25T12:24:05.061Z,37.31
2019-02-25T12:27:11.982Z,36.82
2019-02-25T12:30:20.167Z,36.93
2019-02-25T12:33:27.076Z,37.36
2019-02-25T12:36:33.874Z,36.62
2019-02-25T12:39:40.799Z,36.43
2019-02-25T12:42:47.652Z,38.29
2019-02-25T12:45:54.772Z,35.52
2019-02-25T12:49:01.545Z,35.49
2019-02-25T12:52:08.657Z,35.57
2019-02-25T12:55:16.903Z,35.76
2019-02-25T12:58:24.294Z,37.04
2019-02-25T13:01:31.146Z,35.39
2019-02-25T13:04:37.982Z,36.56
2019-02-25T13:07:44.961Z,38.20
2019-02-25T13:10:51.892Z,35.51
2019-02-25T13:13:58.793Z,36.43
2019-02-25T13:17:06.425Z,36.76
2019-02-25T13:20:13.792Z,35.34
2019-02-25T13:23:21.285Z,36.57
2019-02-25T13:26:29.341Z,37.29
2019-02-25T13:29:36.732Z,36.57
2019-02-25T13:32:43.811Z,36.18
2019-02-25T13:35:50.797Z,36.19
2019-02-25T13:38:57.678Z,36.24
2019-02-25T13:42:04.727Z,36.69
2019-02-25T13:45:13.544Z,37.01
2019-02-25T13:48:21.197Z,37.86
2019-02-25T13:51:28.199Z,37.84
2019-02-25T13:54:35.120Z,37.26
2019-02-25T13:57:42.318Z,36.65
2019-02-25T14:00:49.383Z,36.68
2019-02-25T14:03:56.241Z,36.66
2019-02-25T14:07:03.141Z,37.90
2019-02-25T14:10:11.270Z,37.31
2019-02-25T14:13:21.825Z,37.39
2019-02-25T14:16:32.010Z,38.23
2019-02-25T14:19:38.897Z,37.20
2019-02-25T14:22:45.935Z,36.51
2019-02-25T14:25:53.413Z,38.00
2019-02-25T14:29:00.348Z,37.39
2019-02-25T14:32:07.302Z,38.00
2019-02-25T14:35:14.583Z,38.38
2019-02-25T14:38:23.240Z,38.18
2019-02-25T14:41:30.532Z,37.39
2019-02-25T14:44:38.021Z,38.13
2019-02-25T14:47:47.515Z,38.36
2019-02-25T14:50:55.096Z,37.91
2019-02-25T14:54:01.954Z,37.91
2019-02-25T14:57:08.863Z,38.18
2019-02-25T15:00:24.230Z,38.14
2019-02-25T15:03:31.206Z,38.22
2019-02-25T15:06:38.082Z,38.61
2019-02-25T15:09:45.843Z,38.13
2019-02-25T15:12:56.582Z,38.73
2019-02-25T15:16:01.359Z,38.75
2019-02-25T15:19:08.239Z,38.46
2019-02-25T15:22:15.593Z,38.62
2019-02-25T15:25:24.995Z,40.50
2019-02-25T15:28:32.213Z,40.85
2019-02-25T15:31:39.475Z,41.92
2019-02-25T15:34:48.209Z,43.20
2019-02-25T15:37:57.832Z,42.91
2019-02-25T15:41:06.687Z,43.66
2019-02-25T15:44:16.207Z,44.62
2019-02-25T15:47:22.338Z,43.60
2019-02-25T15:50:29.536Z,45.28
2019-02-25T15:53:36.730Z,45.92
2019-02-25T15:56:43.676Z,47.57
2019-02-25T15:59:53.765Z,51.39
2019-02-25T16:03:01.229Z,52.93
2019-02-25T16:06:10.603Z,53.90
2019-02-25T16:09:25.083Z,53.41
2019-02-25T16:12:31.386Z,54.16
2019-02-25T16:15:40.026Z,55.32
2019-02-25T16:18:47.219Z,54.58
2019-02-25T16:21:54.788Z,56.82
2019-02-25T16:25:05.202Z,55.37
2019-02-25T16:28:13.061Z,54.92
2019-02-25T16:31:24.123Z,55.53
2019-02-25T16:34:32.014Z,58.63
2019-02-25T16:37:39.729Z,58.58
2019-02-25T16:40:46.617Z,58.83
2019-02-25T16:43:53.632Z,58.27
2019-02-25T16:47:00.621Z,56.97
2019-02-25T16:50:08.780Z,57.05
2019-02-25T16:53:17.811Z,58.43
2019-02-25T16:56:25.054Z,58.22
2019-02-25T16:59:32.058Z,58.26
2019-02-25T17:02:40.637Z,57.95
2019-02-25T17:05:49.881Z,57.32
2019-02-25T17:08:57.702Z,59.17
2019-02-25T17:12:06.854Z,58.77
2019-02-25T17:15:19.753Z,59.29
2019-02-25T17:18:26.725Z,59.14
2019-02-25T17:21:33.623Z,59.38
2019-02-25T17:24:40.948Z,59.78
2019-02-25T17:27:48.745Z,61.38
2019-02-25T17:30:55.681Z,62.18
2019-02-25T17:34:03.999Z,64.81
2019-02-25T17:37:12.658Z,63.55
2019-02-25T17:40:19.756Z,63.64
2019-02-25T17:43:26.896Z,63.11
2019-02-25T17:46:34.948Z,62.85
2019-02-25T17:49:43.065Z,64.30
2019-02-25T17:52:50.483Z,63.81
2019-02-25T17:55:59.417Z,63.82
2019-02-25T17:59:14.162Z,65.75
2019-02-25T18:02:22.095Z,65.28
2019-02-25T18:05:33.515Z,65.21
2019-02-25T18:08:40.598Z,64.90
2019-02-25T18:11:48.998Z,65.38
2019-02-25T18:14:55.955Z,68.53
2019-02-25T18:18:07.145Z,70.35
2019-02-25T18:21:12.651Z,69.08
2019-02-25T18:24:19.792Z,69.93
2019-02-25T18:27:27.211Z,70.73
2019-02-25T18:30:34.227Z,72.91
2019-02-25T18:33:42.047Z,70.27
2019-02-25T18:36:51.657Z,69.31
2019-02-25T18:39:59.743Z,68.67
2019-02-25T18:43:07.785Z,69.12
2019-02-25T18:46:20.797Z,69.82
2019-02-25T18:49:28.686Z,71.37
2019-02-25T18:52:38.414Z,72.21
2019-02-25T18:55:45.911Z,72.16
2019-02-25T18:59:07.404Z,72.26
2019-02-25T19:02:02.820Z,71.20
2019-02-25T19:05:13.695Z,71.19
2019-02-25T19:08:20.318Z,71.41
2019-02-25T19:11:28.359Z,74.50
2019-02-25T19:14:35.366Z,73.30
2019-02-25T19:17:43.797Z,73.55
2019-02-25T19:20:51.055Z,74.12
2019-02-25T19:23:58.241Z,73.99
2019-02-25T19:27:06.562Z,73.12
2019-02-25T19:30:19.462Z,74.18
2019-02-25T19:33:25.119Z,75.15
2019-02-25T19:36:34.390Z,75.36
2019-02-25T19:39:43.823Z,75.21
2019-02-25T19:42:51.842Z,73.92
2019-02-25T19:46:01.234Z,73.01
2019-02-25T19:49:09.238Z,72.98
2019-02-25T19:52:18.867Z,72.98
2019-02-25T19:55:25.568Z,73.64
2019-02-25T19:58:34.180Z,72.71
2019-02-25T20:01:41.242Z,72.43
2019-02-25T20:04:50.206Z,72.77
2019-02-25T20:07:56.851Z,73.46
2019-02-25T20:11:03.861Z,77.09
2019-02-25T20:14:11.114Z,74.58
2019-02-25T20:17:26.029Z,74.92
2019-02-25T20:20:38.417Z,74.51
2019-02-25T20:23:47.035Z,74.71
2019-02-25T20:26:57.592Z,75.09
2019-02-25T20:30:03.135Z,77.12
2019-02-25T20:33:11.169Z,75.11
2019-02-25T20:36:23.639Z,74.13
2019-02-25T20:39:31.794Z,74.11
2019-02-25T20:42:40.425Z,73.62
2019-02-25T20:45:48.175Z,73.52
2019-02-25T20:48:57.842Z,73.56
2019-02-25T20:52:05.085Z,74.60
2019-02-25T20:55:13.373Z,74.28
2019-02-25T20:58:23.229Z,73.37
2019-02-25T21:01:30.276Z,73.30
2019-02-25T21:04:38.697Z,73.94
2019-02-25T21:07:45.936Z,74.99
2019-02-25T21:10:52.911Z,74.31
2019-02-25T21:13:59.856Z,73.79
2019-02-25T21:17:09.885Z,74.31
2019-02-25T21:20:19.645Z,73.75
2019-02-25T21:23:27.616Z,73.52
2019-02-25T21:26:36.369Z,74.77
2019-02-25T21:29:43.281Z,75.44
2019-02-25T21:32:52.535Z,75.72
2019-02-25T21:36:00.300Z,74.65
2019-02-25T21:39:10.392Z,74.36
2019-02-25T21:42:24.739Z,74.75
2019-02-25T21:45:35.221Z,74.59
2019-02-25T21:48:42.096Z,74.92
2019-02-25T21:51:49.017Z,75.14
2019-02-25T21:54:55.916Z,76.08
2019-02-25T21:58:04.854Z,75.32
2019-02-25T22:01:11.557Z,75.34
2019-02-25T22:04:22.405Z,75.33
2019-02-25T22:07:31.054Z,75.00
2019-02-25T22:10:39.878Z,75.77
2019-02-25T22:13:46.340Z,76.69
2019-02-25T22:16:54.375Z,77.06
2019-02-25T22:20:02.638Z,75.77
2019-02-25T22:23:11.660Z,75.15
2019-02-25T22:26:24.123Z,75.82
2019-02-25T22:29:30.476Z,75.54
2019-02-25T22:32:40.680Z,76.16
2019-02-25T22:35:49.407Z,75.79
2019-02-25T22:38:57.202Z,78.75
2019-02-25T22:42:05.697Z,77.55
2019-02-25T22:45:18.576Z,76.16
2019-02-25T22:48:26.777Z,77.38
2019-02-25T22:51:35.275Z,77.26
2019-02-25T22:54:43.525Z,76.98
2019-02-25T22:57:53.890Z,76.89
2019-02-25T23:01:14.875Z,75.85
2019-02-25T23:04:21.923Z,76.39
2019-02-25T23:07:28.481Z,77.94
2019-02-25T23:10:38.085Z,78.42
2019-02-25T23:13:45.729Z,79.10
2019-02-25T23:16:52.809Z,78.85
2019-02-25T23:20:00.535Z,79.64
2019-02-25T23:23:08.436Z,77.97
2019-02-25T23:26:17.075Z,77.37
2019-02-25T23:29:28.447Z,77.70
2019-02-25T23:32:34.612Z,76.74
2019-02-25T23:35:44.656Z,77.17
2019-02-25T23:38:50.702Z,77.08
2019-02-25T23:42:00.641Z,78.86
2019-02-25T23:45:08.796Z,79.66
2019-02-25T23:48:16.276Z,78.70
2019-02-25T23:51:23.645Z,81.76
2019-02-25T23:54:30.756Z,83.90
2019-02-25T23:57:37.617Z,81.87
